createdAt,value
2023-03-08T00:00:45.026Z,98634.42
2023-03-08T00:01:47.337Z,98633.66
2023-03-08T00:02:50.300Z,98631.42
2023-03-08T00:03:54.488Z,98632.20
2023-03-08T00:04:57.148Z,98628.00
2023-03-08T00:06:01.208Z,98629.64
2023-03-08T00:07:03.946Z,98624.67
2023-03-08T00:08:06.342Z,98623.73
2023-03-08T00:09:09.506Z,98621.94
2023-03-08T00:10:12.192Z,98623.57
2023-03-08T00:11:15.362Z,98617.47
2023-03-08T00:12:19.586Z,98618.28
2023-03-08T00:13:22.092Z,98613.27
2023-03-08T00:14:25.869Z,98612.51
2023-03-08T00:15:29.330Z,98611.84
2023-03-08T00:16:31.799Z,98612.58
2023-03-08T00:17:37.217Z,98607.50
2023-03-08T00:18:40.411Z,98604.98
2023-03-08T00:19:43.596Z,98597.58
2023-03-08T00:20:46.224Z,98600.25
2023-03-08T00:21:48.375Z,98597.69
2023-03-08T00:22:51.171Z,98595.98
2023-03-08T00:23:54.582Z,98596.81
2023-03-08T00:24:56.879Z,98591.64
2023-03-08T00:25:59.363Z,98590.70
2023-03-08T00:27:01.699Z,98589.94
2023-03-08T00:28:04.216Z,98588.25
2023-03-08T00:29:07.021Z,98591.36
2023-03-08T00:30:11.536Z,98590.32
2023-03-08T00:31:14.591Z,98586.95
2023-03-08T00:32:17.261Z,98583.89
2023-03-08T00:33:19.792Z,98581.38
2023-03-08T00:34:22.140Z,98579.69
2023-03-08T00:35:25.014Z,98583.13
2023-03-08T00:36:28.171Z,98576.55
2023-03-08T00:37:31.735Z,98577.30
2023-03-08T00:38:36.025Z,98584.97
2023-03-08T00:39:38.504Z,98575.71
2023-03-08T00:40:41.313Z,98569.89
2023-03-08T00:41:43.744Z,98572.45
2023-03-08T00:42:46.204Z,98580.14
2023-03-08T00:43:51.598Z,98572.45
2023-03-08T00:44:54.209Z,98576.41
2023-03-08T00:45:57.992Z,98572.83
2023-03-08T00:47:00.808Z,98570.95
2023-03-08T00:48:03.487Z,98576.31
2023-03-08T00:49:05.851Z,98572.12
2023-03-08T00:50:10.159Z,98574.08
2023-03-08T00:51:15.236Z,98563.72
2023-03-08T00:52:17.766Z,98555.92
2023-03-08T00:53:21.169Z,98561.17
2023-03-08T00:54:23.840Z,98563.73
2023-03-08T00:55:28.642Z,98563.73
2023-03-08T00:56:33.274Z,98552.55
2023-03-08T00:57:36.782Z,98547.48
2023-03-08T00:58:40.870Z,98556.03
2023-03-08T00:59:43.227Z,98553.26
2023-03-08T01:00:48.711Z,98554.83
2023-03-08T01:01:51.467Z,98552.15
2023-03-08T01:02:55.852Z,98558.92
2023-03-08T01:03:58.671Z,98556.52
2023-03-08T01:05:00.860Z,98543.53
2023-03-08T01:06:12.175Z,98553.63
2023-03-08T01:07:16.473Z,98560.45
2023-03-08T01:08:20.078Z,98553.63
2023-03-08T01:09:22.469Z,98549.14
2023-03-08T01:10:24.784Z,98541.55
2023-03-08T01:11:27.621Z,98541.80
2023-03-08T01:12:32.444Z,98545.34
2023-03-08T01:13:35.610Z,98537.77
2023-03-08T01:14:38.000Z,98531.72
2023-03-08T01:15:40.901Z,98534.98
2023-03-08T01:16:43.850Z,98526.52
2023-03-08T01:17:46.296Z,98526.59
2023-03-08T01:18:50.414Z,98525.42
2023-03-08T01:19:55.018Z,98517.86
2023-03-08T01:21:00.669Z,98526.95
2023-03-08T01:22:04.675Z,98534.75
2023-03-08T01:23:08.785Z,98533.75
2023-03-08T01:24:11.136Z,98534.64
2023-03-08T01:25:13.909Z,98531.84
2023-03-08T01:26:19.917Z,98536.96
2023-03-08T01:27:22.338Z,98532.89
2023-03-08T01:28:24.673Z,98538.02
2023-03-08T01:29:28.258Z,98533.89
2023-03-08T01:30:32.464Z,98538.77
2023-03-08T01:31:34.833Z,98542.89
2023-03-08T01:32:37.536Z,98543.89
2023-03-08T01:33:40.871Z,98542.89
2023-03-08T01:34:43.296Z,98551.34
2023-03-08T01:35:49.804Z,98542.67
2023-03-08T01:36:52.293Z,98540.23
2023-03-08T01:37:54.456Z,98529.45
2023-03-08T01:39:02.636Z,98534.64
2023-03-08T01:40:06.814Z,98529.62
2023-03-08T01:41:22.031Z,98529.69
2023-03-08T01:42:25.305Z,98525.55
2023-03-08T01:43:30.854Z,98528.11
2023-03-08T01:44:50.827Z,98528.17
2023-03-08T01:46:32.072Z,98529.69
2023-03-08T01:47:36.362Z,98525.38
2023-03-08T01:48:44.818Z,98530.27
2023-03-08T01:49:50.368Z,98522.58
2023-03-08T01:50:53.645Z,98531.13
2023-03-08T01:52:24.211Z,98527.59
2023-03-08T01:53:26.995Z,98525.15
2023-03-08T01:54:36.179Z,98531.78
2023-03-08T01:55:39.854Z,98532.52
2023-03-08T01:56:45.028Z,98533.34
2023-03-08T01:57:56.836Z,98523.79
2023-03-08T01:59:02.389Z,98520.30
2023-03-08T02:00:09.202Z,98523.89
2023-03-08T02:01:19.635Z,98521.10
2023-03-08T02:02:28.337Z,98509.73
2023-03-08T02:03:30.434Z,98513.77
2023-03-08T02:04:32.981Z,98522.16
2023-03-08T02:05:43.944Z,98520.53
2023-03-08T02:06:53.929Z,98520.61
2023-03-08T02:07:57.545Z,98514.78
2023-03-08T02:09:05.112Z,98508.77
2023-03-08T02:10:09.819Z,98500.78
2023-03-08T02:11:15.087Z,98509.20
2023-03-08T02:12:18.776Z,98505.45
2023-03-08T02:13:21.347Z,98500.05
2023-03-08T02:14:25.889Z,98506.94
2023-03-08T02:15:28.586Z,98498.55
2023-03-08T02:16:32.487Z,98500.13
2023-03-08T02:17:39.065Z,98501.67
2023-03-08T02:19:00.030Z,98497.56
2023-03-08T02:20:15.700Z,98502.00
2023-03-08T02:21:18.627Z,98504.63
2023-03-08T02:22:23.125Z,98504.32
2023-03-08T02:23:26.281Z,98508.52
2023-03-08T02:24:28.754Z,98505.95
2023-03-08T02:25:31.148Z,98510.06
2023-03-08T02:26:37.356Z,98508.52
2023-03-08T02:27:41.567Z,98512.57
2023-03-08T02:28:45.198Z,98516.19
2023-03-08T02:29:48.534Z,98515.05
2023-03-08T02:30:51.294Z,98514.97
2023-03-08T02:31:53.772Z,98515.05
2023-03-08T02:32:56.229Z,98507.09
2023-03-08T02:33:58.617Z,98510.00
2023-03-08T02:35:02.347Z,98510.66
2023-03-08T02:36:07.723Z,98508.04
2023-03-08T02:37:10.108Z,98508.78
2023-03-08T02:38:14.431Z,98507.09
2023-03-08T02:39:16.861Z,98502.68
2023-03-08T02:40:19.836Z,98501.39
2023-03-08T02:41:22.425Z,98504.78
2023-03-08T02:42:24.988Z,98503.96
2023-03-08T02:43:28.562Z,98510.72
2023-03-08T02:44:30.972Z,98504.91
2023-03-08T02:45:34.093Z,98500.33
2023-03-08T02:46:37.228Z,98492.77
2023-03-08T02:47:39.789Z,98497.20
2023-03-08T02:48:42.937Z,98509.98
2023-03-08T02:49:45.972Z,98513.63
2023-03-08T02:50:48.647Z,98514.66
2023-03-08T02:51:51.596Z,98512.89
2023-03-08T02:52:54.002Z,98515.26
2023-03-08T02:53:56.707Z,98497.88
2023-03-08T02:54:59.168Z,98507.35
2023-03-08T02:56:02.026Z,98501.48
2023-03-08T02:57:04.587Z,98507.06
2023-03-08T02:58:08.555Z,98497.62
2023-03-08T02:59:11.131Z,98502.13
2023-03-08T03:00:14.851Z,98501.19
2023-03-08T03:01:17.677Z,98507.47
2023-03-08T03:02:20.171Z,98513.86
2023-03-08T03:03:22.472Z,98517.23
2023-03-08T03:04:32.237Z,98511.30
2023-03-08T03:05:36.000Z,98518.91
2023-03-08T03:06:40.395Z,98534.31
2023-03-08T03:07:43.790Z,98529.12
2023-03-08T03:08:48.578Z,98530.86
2023-03-08T03:09:51.311Z,98533.43
2023-03-08T03:10:54.452Z,98522.22
2023-03-08T03:11:57.054Z,98515.86
2023-03-08T03:13:00.541Z,98510.06
2023-03-08T03:14:05.060Z,98511.99
2023-03-08T03:15:11.712Z,98498.17
2023-03-08T03:16:16.457Z,98508.35
2023-03-08T03:17:18.963Z,98509.92
2023-03-08T03:18:21.237Z,98502.36
2023-03-08T03:19:23.692Z,98498.86
2023-03-08T03:20:26.294Z,98498.08
2023-03-08T03:21:28.749Z,98498.77
2023-03-08T03:22:31.512Z,98490.95
2023-03-08T03:24:37.668Z,98499.45
2023-03-08T03:25:41.821Z,98493.30
2023-03-08T03:26:46.312Z,98499.31
2023-03-08T03:27:48.770Z,98498.29
2023-03-08T03:28:51.991Z,98502.34
2023-03-08T03:29:54.562Z,98498.09
2023-03-08T03:30:57.216Z,98484.51
2023-03-08T03:31:59.397Z,98490.17
2023-03-08T03:33:01.820Z,98478.43
2023-03-08T03:34:06.265Z,98481.88
2023-03-08T03:35:09.661Z,98482.68
2023-03-08T03:36:14.774Z,98480.11
2023-03-08T03:37:17.211Z,98481.88
2023-03-08T03:38:20.195Z,98490.41
2023-03-08T03:39:22.699Z,98482.70
2023-03-08T03:40:25.863Z,98484.66
2023-03-08T03:41:30.182Z,98487.30
2023-03-08T03:42:37.645Z,98480.11
2023-03-08T03:43:42.764Z,98476.75
2023-03-08T03:44:45.970Z,98481.97
2023-03-08T03:45:58.297Z,98475.41
2023-03-08T03:47:01.692Z,98478.84
2023-03-08T03:48:04.366Z,98481.41
2023-03-08T03:49:08.399Z,98479.72
2023-03-08T03:50:12.841Z,98473.59
2023-03-08T03:51:20.180Z,98468.56
2023-03-08T03:52:24.488Z,98473.84
2023-03-08T03:53:30.184Z,98469.59
2023-03-08T03:54:33.306Z,98479.92
2023-03-08T03:55:35.839Z,98467.17
2023-03-08T03:56:38.842Z,98460.16
2023-03-08T03:57:41.997Z,98468.77
2023-03-08T03:58:46.181Z,98462.70
2023-03-08T03:59:49.292Z,98456.70
2023-03-08T04:00:52.293Z,98456.70
2023-03-08T04:01:56.583Z,98456.13
2023-03-08T04:03:00.759Z,98455.91
2023-03-08T04:04:04.768Z,98463.02
2023-03-08T04:05:09.011Z,98458.92
2023-03-08T04:06:16.403Z,98449.39
2023-03-08T04:07:19.224Z,98452.55
2023-03-08T04:08:23.513Z,98449.30
2023-03-08T04:09:25.913Z,98452.55
2023-03-08T04:10:31.677Z,98440.38
2023-03-08T04:11:37.183Z,98446.62
2023-03-08T04:12:39.782Z,98444.17
2023-03-08T04:13:42.827Z,98446.73
2023-03-08T04:14:45.457Z,98443.52
2023-03-08T04:15:48.722Z,98437.35
2023-03-08T04:16:52.178Z,98438.83
2023-03-08T04:17:56.743Z,98437.23
2023-03-08T04:19:04.059Z,98438.83
2023-03-08T04:20:08.916Z,98433.48
2023-03-08T04:21:14.234Z,98439.56
2023-03-08T04:22:16.740Z,98437.87
2023-03-08T04:23:21.034Z,98431.48
2023-03-08T04:24:23.996Z,98432.58
2023-03-08T04:25:28.341Z,98430.09
2023-03-08T04:26:33.039Z,98437.86
2023-03-08T04:27:35.950Z,98439.41
2023-03-08T04:28:38.865Z,98432.72
2023-03-08T04:29:41.552Z,98432.42
2023-03-08T04:30:46.284Z,98416.60
2023-03-08T04:31:48.923Z,98416.60
2023-03-08T04:32:53.188Z,98428.64
2023-03-08T04:33:58.450Z,98411.68
2023-03-08T04:35:01.736Z,98415.22
2023-03-08T04:36:06.521Z,98411.89
2023-03-08T04:37:10.962Z,98416.02
2023-03-08T04:38:14.103Z,98411.68
2023-03-08T04:39:16.868Z,98419.53
2023-03-08T04:40:20.229Z,98413.51
2023-03-08T04:41:25.257Z,98414.39
2023-03-08T04:42:31.889Z,98413.66
2023-03-08T04:43:34.813Z,98419.62
2023-03-08T04:44:38.387Z,98418.59
2023-03-08T04:45:40.859Z,98415.22
2023-03-08T04:46:45.215Z,98419.44
2023-03-08T04:47:49.645Z,98415.66
2023-03-08T04:48:53.624Z,98414.70
2023-03-08T04:49:56.264Z,98417.27
2023-03-08T04:51:01.530Z,98418.13
2023-03-08T04:52:04.833Z,98413.14
2023-03-08T04:53:09.372Z,98408.22
2023-03-08T04:54:11.846Z,98404.77
2023-03-08T04:55:16.277Z,98406.48
2023-03-08T04:56:20.552Z,98401.50
2023-03-08T04:57:23.828Z,98409.11
2023-03-08T04:58:29.188Z,98408.31
2023-03-08T04:59:31.789Z,98412.47
2023-03-08T05:00:36.709Z,98406.33
2023-03-08T05:01:42.120Z,98406.42
2023-03-08T05:02:44.500Z,98408.96
2023-03-08T05:03:49.382Z,98408.90
2023-03-08T05:04:51.996Z,98422.35
2023-03-08T05:05:55.703Z,98417.95
2023-03-08T05:06:58.693Z,98421.09
2023-03-08T05:08:04.669Z,98423.51
2023-03-08T05:09:07.328Z,98424.55
2023-03-08T05:10:12.711Z,98428.70
2023-03-08T05:11:25.682Z,98436.41
2023-03-08T05:12:28.280Z,98424.67
2023-03-08T05:13:39.037Z,98423.57
2023-03-08T05:14:42.021Z,98424.67
2023-03-08T05:15:46.331Z,98421.00
2023-03-08T05:16:48.778Z,98418.59
2023-03-08T05:17:51.470Z,98426.45
2023-03-08T05:18:53.966Z,98418.80
2023-03-08T05:19:59.436Z,98416.69
2023-03-08T05:21:06.993Z,98418.30
2023-03-08T05:22:10.911Z,98413.17
2023-03-08T05:23:15.237Z,98412.28
2023-03-08T05:24:17.820Z,98408.73
2023-03-08T05:25:21.214Z,98407.05
2023-03-08T05:26:24.525Z,98404.52
2023-03-08T05:27:27.773Z,98408.73
2023-03-08T05:28:33.010Z,98400.33
2023-03-08T05:29:37.826Z,98398.55
2023-03-08T05:30:40.556Z,98398.55
2023-03-08T05:31:44.926Z,98397.38
2023-03-08T05:32:48.699Z,98398.90
2023-03-08T05:33:51.943Z,98402.52
2023-03-08T05:34:56.152Z,98401.13
2023-03-08T05:36:00.669Z,98391.86
2023-03-08T05:37:03.103Z,98386.59
2023-03-08T05:38:06.926Z,98388.59
2023-03-08T05:39:10.591Z,98379.11
2023-03-08T05:40:30.079Z,98380.13
2023-03-08T05:41:33.828Z,98374.86
2023-03-08T05:42:36.438Z,98380.13
2023-03-08T05:43:39.012Z,98388.72
2023-03-08T05:44:41.742Z,98376.55
2023-03-08T05:46:01.745Z,98376.55
2023-03-08T05:47:04.715Z,98380.00
2023-03-08T05:48:08.360Z,98383.23
2023-03-08T05:49:11.353Z,98386.81
2023-03-08T05:50:14.553Z,98378.89
2023-03-08T05:51:18.992Z,98378.89
2023-03-08T05:52:22.047Z,98386.15
2023-03-08T05:53:27.190Z,98379.91
2023-03-08T05:54:29.950Z,98389.39
2023-03-08T05:55:34.576Z,98389.39
2023-03-08T05:56:37.947Z,98388.56
2023-03-08T05:57:42.066Z,98381.68
2023-03-08T05:58:47.904Z,98388.50
2023-03-08T05:59:51.294Z,98388.81
2023-03-08T06:00:55.719Z,98392.75
2023-03-08T06:01:59.223Z,98391.86
2023-03-08T06:03:06.393Z,98390.05
2023-03-08T06:04:11.170Z,98388.44
2023-03-08T06:05:15.397Z,98386.59
2023-03-08T06:06:20.559Z,98385.64
2023-03-08T06:07:23.592Z,98377.17
2023-03-08T06:08:30.693Z,98389.95
2023-03-08T06:09:34.419Z,98381.39
2023-03-08T06:10:37.252Z,98382.41
2023-03-08T06:11:40.289Z,98385.14
2023-03-08T06:12:43.158Z,98381.68
2023-03-08T06:13:47.733Z,98378.06
2023-03-08T06:14:51.423Z,98378.09
2023-03-08T06:15:59.012Z,98373.69
2023-03-08T06:17:01.846Z,98383.14
2023-03-08T06:18:06.029Z,98372.04
2023-03-08T06:19:08.379Z,98372.23
2023-03-08T06:20:12.512Z,98382.19
2023-03-08T06:21:18.709Z,98371.59
2023-03-08T06:22:22.818Z,98374.26
2023-03-08T06:23:27.679Z,98368.50
2023-03-08T06:24:30.968Z,98366.82
2023-03-08T06:25:33.464Z,98366.95
2023-03-08T06:26:36.201Z,98361.68
2023-03-08T06:27:38.838Z,98366.78
2023-03-08T06:28:43.377Z,98365.89
2023-03-08T06:29:48.745Z,98352.75
2023-03-08T06:30:53.400Z,98356.11
2023-03-08T06:31:55.756Z,98352.02
2023-03-08T06:32:59.689Z,98349.55
2023-03-08T06:34:03.039Z,98353.44
2023-03-08T06:35:07.450Z,98348.17
2023-03-08T06:36:14.766Z,98344.05
2023-03-08T06:37:19.394Z,98346.49
2023-03-08T06:38:22.380Z,98346.49
2023-03-08T06:39:25.484Z,98357.46
2023-03-08T06:40:28.837Z,98344.25
2023-03-08T06:41:31.385Z,98340.06
2023-03-08T06:42:41.226Z,98348.73
2023-03-08T06:43:38.799Z,98348.43
2023-03-08T06:44:41.287Z,98351.86
2023-03-08T06:45:45.082Z,98353.30
2023-03-08T06:46:47.940Z,98345.59
2023-03-08T06:47:50.600Z,98349.77
2023-03-08T06:48:55.059Z,98354.19
2023-03-08T06:49:58.188Z,98349.64
2023-03-08T06:51:00.941Z,98351.77
2023-03-08T06:52:04.049Z,98358.14
2023-03-08T06:54:21.366Z,98363.05
2023-03-08T06:55:24.028Z,98363.45
2023-03-08T06:56:27.446Z,98363.45
2023-03-08T06:57:29.857Z,98361.25
2023-03-08T06:58:34.830Z,98367.66
2023-03-08T06:59:38.402Z,98352.86
2023-03-08T07:00:42.020Z,98362.08
2023-03-08T07:01:44.930Z,98364.91
2023-03-08T07:02:48.174Z,98365.80
2023-03-08T07:03:51.905Z,98359.33
2023-03-08T07:04:54.304Z,98348.59
2023-03-08T07:06:00.990Z,98357.97
2023-03-08T07:07:03.841Z,98360.15
2023-03-08T07:08:08.245Z,98352.81
2023-03-08T07:09:11.195Z,98351.73
2023-03-08T07:10:15.548Z,98354.39
2023-03-08T07:11:18.153Z,98348.38
2023-03-08T07:12:20.800Z,98349.49
2023-03-08T07:13:24.275Z,98354.89
2023-03-08T07:14:26.755Z,98354.29
2023-03-08T07:15:30.454Z,98351.72
2023-03-08T07:16:34.473Z,98357.39
2023-03-08T07:17:39.362Z,98350.39
2023-03-08T07:18:43.509Z,98349.34
2023-03-08T07:19:46.514Z,98349.05
2023-03-08T07:20:53.105Z,98353.75
2023-03-08T07:21:56.055Z,98350.40
2023-03-08T07:23:00.583Z,98349.09
2023-03-08T07:24:03.331Z,98357.48
2023-03-08T07:25:07.037Z,98349.76
2023-03-08T07:26:11.231Z,98356.33
2023-03-08T07:27:17.023Z,98349.08
2023-03-08T07:28:19.846Z,98350.22
2023-03-08T07:29:24.660Z,98346.20
2023-03-08T07:30:33.990Z,98345.25
2023-03-08T07:31:37.800Z,98349.28
2023-03-08T07:32:43.565Z,98344.55
2023-03-08T07:33:46.405Z,98343.84
2023-03-08T07:34:49.203Z,98348.59
2023-03-08T07:35:52.767Z,98348.94
2023-03-08T07:36:56.067Z,98343.03
2023-03-08T07:37:58.617Z,98349.91
2023-03-08T07:39:00.989Z,98351.52
2023-03-08T07:40:05.695Z,98354.98
2023-03-08T07:41:08.278Z,98356.26
2023-03-08T07:42:10.837Z,98354.73
2023-03-08T07:43:13.714Z,98342.10
2023-03-08T07:44:21.417Z,98352.00
2023-03-08T07:45:23.970Z,98348.72
2023-03-08T07:46:31.564Z,98334.92
2023-03-08T07:47:34.407Z,98332.66
2023-03-08T07:48:36.850Z,98336.31
2023-03-08T07:49:39.301Z,98326.41
2023-03-08T07:50:42.152Z,98316.66
2023-03-08T07:51:45.084Z,98330.98
2023-03-08T07:52:48.401Z,98320.06
2023-03-08T07:53:52.266Z,98324.31
2023-03-08T07:54:55.697Z,98330.05
2023-03-08T07:56:02.150Z,98337.88
2023-03-08T07:57:05.376Z,98338.00
2023-03-08T07:58:07.794Z,98328.52
2023-03-08T07:59:10.133Z,98345.73
2023-03-08T08:00:14.147Z,98344.19
2023-03-08T08:01:19.340Z,98339.27
2023-03-08T08:02:22.361Z,98334.56
2023-03-08T08:03:25.377Z,98337.30
2023-03-08T08:04:27.735Z,98334.02
2023-03-08T08:05:30.078Z,98320.67
2023-03-08T08:06:36.928Z,98336.14
2023-03-08T08:07:39.339Z,98345.05
2023-03-08T08:08:41.924Z,98331.59
2023-03-08T08:09:44.410Z,98341.02
2023-03-08T08:10:46.780Z,98341.67
2023-03-08T08:11:49.973Z,98337.02
2023-03-08T08:12:56.144Z,98339.27
2023-03-08T08:13:58.687Z,98344.14
2023-03-08T08:15:01.072Z,98339.11
2023-03-08T08:16:06.274Z,98343.49
2023-03-08T08:17:09.112Z,98343.85
2023-03-08T08:18:12.607Z,98326.63
2023-03-08T08:19:18.100Z,98333.09
2023-03-08T08:20:21.052Z,98320.67
2023-03-08T08:21:25.795Z,98320.38
2023-03-08T08:22:28.321Z,98327.08
2023-03-08T08:23:35.251Z,98317.97
2023-03-08T08:24:37.884Z,98315.99
2023-03-08T08:25:40.243Z,98312.06
2023-03-08T08:26:43.241Z,98313.74
2023-03-08T08:27:45.733Z,98311.54
2023-03-08T08:28:51.809Z,98307.86
2023-03-08T08:29:55.147Z,98313.53
2023-03-08T08:30:59.923Z,98305.79
2023-03-08T08:32:04.919Z,98310.19
2023-03-08T08:33:08.545Z,98298.86
2023-03-08T08:34:10.872Z,98303.44
2023-03-08T08:35:14.597Z,98304.80
2023-03-08T08:36:19.443Z,98301.48
2023-03-08T08:37:22.520Z,98313.05
2023-03-08T08:38:26.367Z,98311.31
2023-03-08T08:39:31.945Z,98309.91
2023-03-08T08:40:34.213Z,98307.36
2023-03-08T08:41:36.377Z,98319.73
2023-03-08T08:42:39.303Z,98314.38
2023-03-08T08:43:42.876Z,98318.70
2023-03-08T08:44:45.432Z,98319.11
2023-03-08T08:45:51.124Z,98323.40
2023-03-08T08:46:53.522Z,98319.73
2023-03-08T08:47:58.045Z,98321.83
2023-03-08T08:49:03.054Z,98327.33
2023-03-08T08:50:07.013Z,98327.04
2023-03-08T08:51:12.758Z,98323.10
2023-03-08T08:52:16.424Z,98322.60
2023-03-08T08:53:19.863Z,98320.84
2023-03-08T08:54:22.311Z,98317.55
2023-03-08T08:55:25.429Z,98319.73
2023-03-08T08:56:29.674Z,98314.81
2023-03-08T08:57:34.722Z,98313.57
2023-03-08T08:58:36.952Z,98316.01
2023-03-08T08:59:40.416Z,98325.34
2023-03-08T09:00:43.938Z,98321.09
2023-03-08T09:01:47.006Z,98314.77
2023-03-08T09:02:49.833Z,98320.09
2023-03-08T09:03:52.668Z,98318.59
2023-03-08T09:04:55.449Z,98314.08
2023-03-08T09:05:58.627Z,98319.50
2023-03-08T09:07:01.111Z,98325.69
2023-03-08T09:08:05.399Z,98320.02
2023-03-08T09:09:08.328Z,98318.02
2023-03-08T09:10:11.509Z,98324.19
2023-03-08T09:11:16.339Z,98316.44
2023-03-08T09:12:20.359Z,98316.77
2023-03-08T09:13:22.731Z,98320.41
2023-03-08T09:14:26.031Z,98318.74
2023-03-08T09:15:28.374Z,98315.19
2023-03-08T09:16:34.481Z,98312.75
2023-03-08T09:17:39.270Z,98311.75
2023-03-08T09:18:44.923Z,98300.92
2023-03-08T09:19:47.550Z,98304.91
2023-03-08T09:20:52.168Z,98312.27
2023-03-08T09:21:57.295Z,98294.25
2023-03-08T09:23:03.930Z,98308.83
2023-03-08T09:24:08.960Z,98292.72
2023-03-08T09:25:16.789Z,98300.33
2023-03-08T09:26:19.794Z,98294.23
2023-03-08T09:27:22.232Z,98293.89
2023-03-08T09:28:26.332Z,98287.20
2023-03-08T09:29:28.730Z,98293.55
2023-03-08T09:30:32.556Z,98294.53
2023-03-08T09:31:37.697Z,98299.55
2023-03-08T09:32:41.283Z,98298.34
2023-03-08T09:33:49.043Z,98285.23
2023-03-08T09:34:55.805Z,98288.13
2023-03-08T09:35:59.356Z,98290.16
2023-03-08T09:37:03.065Z,98288.30
2023-03-08T09:38:05.381Z,98291.28
2023-03-08T09:39:10.747Z,98287.94
2023-03-08T09:40:23.390Z,98283.78
2023-03-08T09:41:44.247Z,98296.00
2023-03-08T09:42:47.671Z,98295.05
2023-03-08T09:44:14.029Z,98282.50
2023-03-08T09:45:28.349Z,98285.66
2023-03-08T09:46:37.932Z,98277.42
2023-03-08T09:47:51.773Z,98281.18
2023-03-08T09:49:11.963Z,98279.34
2023-03-08T09:50:27.169Z,98287.27
2023-03-08T09:51:35.718Z,98291.46
2023-03-08T09:52:42.948Z,98294.88
2023-03-08T09:53:55.037Z,98290.87
2023-03-08T09:55:00.915Z,98293.20
2023-03-08T09:56:23.486Z,98308.73
2023-03-08T09:57:30.034Z,98298.53
2023-03-08T09:58:39.071Z,98311.52
2023-03-08T09:59:50.771Z,98295.52
2023-03-08T10:00:56.638Z,98296.77
2023-03-08T10:02:19.883Z,98280.83
2023-03-08T10:03:36.452Z,98286.63
2023-03-08T10:05:12.211Z,98276.00
2023-03-08T10:06:14.616Z,98284.19
2023-03-08T10:07:46.031Z,98283.60
2023-03-08T10:09:16.811Z,98273.00
2023-03-08T10:10:39.774Z,98276.90
2023-03-08T10:11:45.582Z,98278.17
2023-03-08T10:13:04.024Z,98282.80
2023-03-08T10:14:18.947Z,98285.45
2023-03-08T10:15:23.347Z,98299.56
2023-03-08T10:16:35.652Z,98300.05
2023-03-08T10:17:52.564Z,98292.19
2023-03-08T10:19:01.839Z,98283.67
2023-03-08T10:20:08.731Z,98275.25
2023-03-08T10:21:16.399Z,98285.45
2023-03-08T10:22:29.091Z,98288.84
2023-03-08T10:23:32.976Z,98290.17
2023-03-08T10:24:45.321Z,98295.14
2023-03-08T10:25:50.457Z,98317.31
2023-03-08T10:26:55.436Z,98292.81
2023-03-08T10:28:00.556Z,98297.52
2023-03-08T10:29:03.329Z,98299.09
2023-03-08T10:30:15.545Z,98301.72
2023-03-08T10:31:25.615Z,98308.57
2023-03-08T10:32:29.856Z,98313.24
2023-03-08T10:33:35.212Z,98305.08
2023-03-08T10:34:37.779Z,98306.09
2023-03-08T10:36:05.820Z,98301.07
2023-03-08T10:37:09.875Z,98299.34
2023-03-08T10:38:16.761Z,98292.89
2023-03-08T10:39:20.737Z,98286.65
2023-03-08T10:40:23.261Z,98288.91
2023-03-08T10:41:28.623Z,98277.06
2023-03-08T10:42:32.397Z,98270.89
2023-03-08T10:43:39.449Z,98272.56
2023-03-08T10:45:03.121Z,98264.63
2023-03-08T10:46:16.009Z,98264.14
2023-03-08T10:47:35.739Z,98266.73
2023-03-08T10:48:40.244Z,98269.22
2023-03-08T10:49:43.058Z,98272.05
2023-03-08T10:50:45.834Z,98268.64
2023-03-08T10:51:54.219Z,98268.89
2023-03-08T10:53:09.163Z,98262.05
2023-03-08T10:54:14.651Z,98255.35
2023-03-08T10:55:20.393Z,98260.70
2023-03-08T10:56:40.865Z,98258.36
2023-03-08T10:58:00.323Z,98266.36
2023-03-08T10:59:04.239Z,98260.75
2023-03-08T11:00:31.937Z,98260.52
2023-03-08T11:01:42.410Z,98260.70
2023-03-08T11:02:46.739Z,98262.17
2023-03-08T11:04:07.968Z,98255.84
2023-03-08T11:05:22.910Z,98250.91
2023-03-08T11:06:26.172Z,98248.47
2023-03-08T11:07:35.521Z,98256.13
2023-03-08T11:08:40.632Z,98269.48
2023-03-08T11:09:44.119Z,98254.89
2023-03-08T11:10:46.939Z,98274.74
2023-03-08T11:11:49.486Z,98253.98
2023-03-08T11:13:03.386Z,98263.00
2023-03-08T11:14:08.674Z,98257.16
2023-03-08T11:15:19.812Z,98273.59
2023-03-08T11:16:39.042Z,98272.36
2023-03-08T11:17:45.904Z,98269.48
2023-03-08T11:19:07.343Z,98263.50
2023-03-08T11:20:24.347Z,98254.57
2023-03-08T11:21:42.549Z,98259.11
2023-03-08T11:23:04.052Z,98261.41
2023-03-08T11:24:10.950Z,98252.81
2023-03-08T11:25:24.461Z,98257.22
2023-03-08T11:26:30.838Z,98269.69
2023-03-08T11:28:08.968Z,98255.42
2023-03-08T11:29:33.151Z,98254.06
2023-03-08T11:30:55.641Z,98265.24
2023-03-08T11:32:34.545Z,98265.30
2023-03-08T11:34:06.880Z,98271.03
2023-03-08T11:35:14.161Z,98267.37
2023-03-08T11:36:42.103Z,98263.64
2023-03-08T11:37:48.210Z,98253.67
2023-03-08T11:39:07.292Z,98249.59
2023-03-08T11:40:29.968Z,98228.27
2023-03-08T11:41:36.936Z,98231.06
2023-03-08T11:42:43.321Z,98241.47
2023-03-08T11:44:08.107Z,98244.05
2023-03-08T11:45:14.166Z,98243.20
2023-03-08T11:46:43.364Z,98259.91
2023-03-08T11:47:53.740Z,98246.93
2023-03-08T11:49:17.431Z,98248.61
2023-03-08T11:50:26.415Z,98258.45
2023-03-08T11:51:54.781Z,98247.75
2023-03-08T11:54:42.698Z,98257.41
2023-03-08T11:56:05.561Z,98242.29
2023-03-08T11:57:11.648Z,98243.36
2023-03-08T11:58:29.880Z,98239.34
2023-03-08T11:59:39.196Z,98230.06
2023-03-08T12:00:45.264Z,98237.89
2023-03-08T12:01:54.754Z,98230.23
2023-03-08T12:03:01.223Z,98227.65
2023-03-08T12:04:07.813Z,98234.25
2023-03-08T12:05:26.514Z,98229.45
2023-03-08T12:06:41.677Z,98223.96
2023-03-08T12:07:55.709Z,98230.49
2023-03-08T12:09:07.890Z,98225.52
2023-03-08T12:10:17.387Z,98225.23
2023-03-08T12:11:40.819Z,98223.66
2023-03-08T12:12:52.742Z,98221.69
2023-03-08T12:14:19.064Z,98213.84
2023-03-08T12:15:34.025Z,98209.50
2023-03-08T12:16:52.532Z,98222.48
2023-03-08T12:18:32.563Z,98219.34
2023-03-08T12:19:43.477Z,98221.77
2023-03-08T12:20:47.358Z,98220.57
2023-03-08T12:21:53.910Z,98221.73
2023-03-08T12:23:06.362Z,98222.50
2023-03-08T12:24:30.089Z,98225.83
2023-03-08T12:25:35.994Z,98224.14
2023-03-08T12:26:45.590Z,98238.58
2023-03-08T12:28:15.563Z,98238.84
2023-03-08T12:29:23.499Z,98248.86
2023-03-08T12:30:30.306Z,98219.63
2023-03-08T12:31:39.980Z,98222.62
2023-03-08T12:32:44.257Z,98233.66
2023-03-08T12:33:48.211Z,98232.71
2023-03-08T12:35:04.983Z,98229.98
2023-03-08T12:36:08.751Z,98235.86
2023-03-08T12:37:26.378Z,98247.13
2023-03-08T12:38:45.077Z,98234.44
2023-03-08T12:40:07.672Z,98246.72
2023-03-08T12:41:26.966Z,98247.72
2023-03-08T12:42:35.765Z,98247.46
2023-03-08T12:43:38.656Z,98245.09
2023-03-08T12:44:42.616Z,98248.06
2023-03-08T12:45:47.970Z,98248.06
2023-03-08T12:47:02.936Z,98258.20
2023-03-08T12:48:08.107Z,98244.88
2023-03-08T12:49:35.153Z,98241.56
2023-03-08T12:50:41.360Z,98251.00
2023-03-08T12:51:43.969Z,98280.56
2023-03-08T12:52:47.282Z,98259.03
2023-03-08T12:53:53.268Z,98251.19
2023-03-08T12:54:59.273Z,98256.56
2023-03-08T12:56:05.420Z,98250.66
2023-03-08T12:57:20.517Z,98245.74
2023-03-08T12:58:22.960Z,98230.84
2023-03-08T12:59:28.974Z,98250.07
2023-03-08T13:00:38.916Z,98246.02